Time;durP1;ratioP1;P1;durP2;ratioP2;P2;SDS_P1;SDS_P2;PMS_P1;PMS_P2;Temp;Humidity;BMP_temperature;BMP_pressure;BME280_temperature;BME280_humidity;BME280_pressure;Samples;Min_cycle;Max_cycle;Signal;HPM_P1;HPM_P2
2021/06/13 00:01:32;;;;;;;8.83;7.93;;;;;;;;;;4979874;28;20457;-96
2021/06/13 00:03:59;;;;;;;8.20;7.20;;;;;;;;;;4975016;28;20469;-96
2021/06/13 00:06:25;;;;;;;8.67;7.80;;;;;;;;;;4967830;28;20459;-96
2021/06/13 00:08:51;;;;;;;8.87;7.43;;;;;;;;;;4976225;28;20485;-96
2021/06/13 00:11:17;;;;;;;7.93;7.13;;;;;;;;;;4976185;28;20462;-96
2021/06/13 00:13:43;;;;;;;10.57;7.30;;;;;;;;;;4970482;28;20461;-96
2021/06/13 00:16:12;;;;;;;8.80;7.47;;;;;;;;;;4984455;28;20463;-95
2021/06/13 00:18:41;;;;;;;11.00;8.70;;;;;;;;;;4978526;28;20899;-96
2021/06/13 00:21:07;;;;;;;8.70;7.90;;;;;;;;;;4986885;28;20456;-96
2021/06/13 00:23:33;;;;;;;9.40;7.00;;;;;;;;;;4969526;28;20493;-96
2021/06/13 00:25:59;;;;;;;9.77;8.07;;;;;;;;;;4983275;28;20450;-96
2021/06/13 00:28:25;;;;;;;9.60;7.63;;;;;;;;;;4983765;28;20458;-96
2021/06/13 00:30:51;;;;;;;9.40;7.40;;;;;;;;;;4986315;28;20453;-96
2021/06/13 00:33:19;;;;;;;9.20;7.80;;;;;;;;;;4973026;28;20494;-96
2021/06/13 00:35:45;;;;;;;8.67;7.80;;;;;;;;;;4977172;28;20468;-96
2021/06/13 00:38:11;;;;;;;9.80;8.47;;;;;;;;;;4983862;28;20450;-96
2021/06/13 00:40:37;;;;;;;10.70;8.10;;;;;;;;;;4979174;28;20455;-95
2021/06/13 00:43:03;;;;;;;9.20;8.10;;;;;;;;;;4966561;28;20520;-96
2021/06/13 00:45:29;;;;;;;7.73;7.00;;;;;;;;;;4989916;28;20919;-96
2021/06/13 00:47:55;;;;;;;9.77;8.13;;;;;;;;;;4979792;28;20487;-96
2021/06/13 00:50:26;;;;;;;7.90;7.07;;;;;;;;;;4965078;28;20466;-96
2021/06/13 00:52:52;;;;;;;7.83;7.07;;;;;;;;;;4975473;28;20490;-96
2021/06/13 00:55:18;;;;;;;7.83;7.03;;;;;;;;;;4975862;28;20458;-94
2021/06/13 00:57:44;;;;;;;9.83;8.43;;;;;;;;;;4975870;28;20454;-94
2021/06/13 01:00:12;;;;;;;8.60;7.73;;;;;;;;;;4984127;28;20452;-94
2021/06/13 01:02:38;;;;;;;8.97;7.53;;;;;;;;;;4980284;28;20478;-95
2021/06/13 01:05:05;;;;;;;9.17;8.07;;;;;;;;;;4967079;28;20473;-95
2021/06/13 01:07:37;;;;;;;9.53;8.43;;;;;;;;;;4989422;28;20466;-96
2021/06/13 01:10:06;;;;;;;10.50;8.40;;;;;;;;;;4975503;28;20468;-96
2021/06/13 01:12:34;;;;;;;10.23;8.50;;;;;;;;;;4972455;28;20523;-96
2021/06/13 01:15:03;;;;;;;7.97;7.17;;;;;;;;;;4967330;28;20450;-96
2021/06/13 01:17:30;;;;;;;11.03;7.83;;;;;;;;;;4986741;28;20470;-96
2021/06/13 01:20:03;;;;;;;9.47;8.37;;;;;;;;;;4978157;28;20457;-96
2021/06/13 01:22:37;;;;;;;10.13;8.73;;;;;;;;;;4969955;28;20497;-96
2021/06/13 01:25:19;;;;;;;8.00;7.20;;;;;;;;;;4974418;28;20461;-96
2021/06/13 01:27:54;;;;;;;8.40;7.00;;;;;;;;;;4957336;28;20578;-95
2021/06/13 01:30:22;;;;;;;8.37;7.57;;;;;;;;;;4967657;28;20504;-96
2021/06/13 01:32:48;;;;;;;8.43;7.60;;;;;;;;;;4960763;28;20523;-96
2021/06/13 01:35:17;;;;;;;9.03;8.13;;;;;;;;;;4977523;28;20462;-95
2021/06/13 01:37:44;;;;;;;8.53;7.30;;;;;;;;;;4974181;28;20485;-96
2021/06/13 01:40:11;;;;;;;8.80;7.90;;;;;;;;;;4973584;28;20468;-96
2021/06/13 01:42:38;;;;;;;12.57;8.20;;;;;;;;;;4978032;28;20866;-96
2021/06/13 01:45:06;;;;;;;9.43;8.43;;;;;;;;;;4984089;28;20458;-96
2021/06/13 01:47:34;;;;;;;13.50;9.20;;;;;;;;;;4978148;28;20501;-96
2021/06/13 01:50:00;;;;;;;9.23;7.70;;;;;;;;;;4978679;28;20478;-96
2021/06/13 01:52:27;;;;;;;8.07;6.80;;;;;;;;;;4971700;28;20522;-96
2021/06/13 01:54:57;;;;;;;8.00;7.20;;;;;;;;;;4976539;28;20460;-95
2021/06/13 01:57:24;;;;;;;8.23;7.43;;;;;;;;;;4978911;28;20517;-96
2021/06/13 01:59:50;;;;;;;8.03;7.17;;;;;;;;;;4968144;28;20458;-96
2021/06/13 02:02:16;;;;;;;11.47;8.23;;;;;;;;;;4977352;28;20704;-95
2021/06/13 02:04:47;;;;;;;7.60;6.90;;;;;;;;;;4972493;28;20738;-96
2021/06/13 02:24:36;;;;;;;9.67;7.20;;;;;;;;;;4952891;29;20547;-96
2021/06/13 02:27:13;;;;;;;9.53;7.90;;;;;;;;;;4950578;29;20490;-96
2021/06/13 04:47:36;;;;;;;11.33;9.63;;;;;;;;;;5520818;23;20562;-96
2021/06/13 04:52:39;;;;;;;10.53;9.03;;;;;;;;;;5323609;23;20572;-96
2021/06/13 05:00:23;;;;;;;11.47;10.30;;;;;;;;;;4971465;28;20593;-96
2021/06/13 05:02:51;;;;;;;13.07;10.30;;;;;;;;;;4970106;28;20485;-96
2021/06/13 05:05:18;;;;;;;11.00;9.87;;;;;;;;;;4992077;28;20470;-96
2021/06/13 05:23:39;;;;;;;17.50;11.70;;;;;;;;;;5103582;23;20562;-96
2021/06/13 05:26:08;;;;;;;16.47;13.03;;;;;;;;;;5050350;23;20562;-96
2021/06/13 05:34:24;;;;;;;16.10;12.23;;;;;;;;;;5596188;23;20494;-96
2021/06/13 05:45:14;;;;;;;14.03;11.87;;;;;;;;;;6021382;23;21170;-96
2021/06/13 06:18:51;;;;;;;17.13;13.53;;;;;;;;;;4954385;28;20499;-96
2021/06/13 06:51:13;;;;;;;11.80;10.50;;;;;;;;;;4943820;28;20546;-96
2021/06/13 06:59:30;;;;;;;11.27;10.17;;;;;;;;;;5501164;23;20486;-96
2021/06/13 07:01:57;;;;;;;15.63;10.70;;;;;;;;;;5084916;23;20517;-96
2021/06/13 07:04:23;;;;;;;13.50;10.30;;;;;;;;;;4984638;28;20509;-96
2021/06/13 07:07:15;;;;;;;11.27;10.17;;;;;;;;;;4975571;28;20469;-96
2021/06/13 07:09:51;;;;;;;11.13;10.03;;;;;;;;;;5352487;23;20486;-96
2021/06/13 07:53:32;;;;;;;9.90;8.30;;;;;;;;;;5218945;23;20242;-96
2021/06/13 07:56:12;;;;;;;8.03;7.23;;;;;;;;;;4953823;28;20463;-96
2021/06/13 08:18:32;;;;;;;13.07;7.63;;;;;;;;;;5337260;23;20498;-96
2021/06/13 08:21:00;;;;;;;9.63;8.73;;;;;;;;;;4965991;28;20450;-93
2021/06/13 08:23:30;;;;;;;9.67;8.70;;;;;;;;;;4970607;28;20458;-95
2021/06/13 08:25:57;;;;;;;10.80;8.13;;;;;;;;;;4980084;28;20455;-96
2021/06/13 08:28:24;;;;;;;9.80;8.80;;;;;;;;;;4978758;28;20450;-96
2021/06/13 08:31:18;;;;;;;9.43;8.53;;;;;;;;;;5266498;23;20567;-96
2021/06/13 08:52:54;;;;;;;10.23;9.33;;;;;;;;;;4983676;23;20475;-96
2021/06/13 09:00:32;;;;;;;9.07;8.27;;;;;;;;;;3047469;23;21244;-95
2021/06/13 09:03:08;;;;;;;9.40;8.60;;;;;;;;;;5166988;23;20512;-96
2021/06/13 09:13:45;;;;;;;11.97;9.03;;;;;;;;;;5279639;23;20275;-96
2021/06/13 09:24:35;;;;;;;9.67;8.80;;;;;;;;;;5498905;23;20515;-96
2021/06/13 09:27:18;;;;;;;9.90;8.93;;;;;;;;;;4955403;29;20460;-96
2021/06/13 09:43:27;;;;;;;11.30;10.20;;;;;;;;;;5002956;23;20502;-95
2021/06/13 10:03:25;;;;;;;11.13;10.03;;;;;;;;;;5725891;23;20482;-96
2021/06/13 10:11:39;;;;;;;17.47;11.87;;;;;;;;;;5316303;23;20541;-96
2021/06/13 10:14:32;;;;;;;12.70;11.37;;;;;;;;;;4957137;28;20476;-96
2021/06/13 10:22:48;;;;;;;12.67;11.37;;;;;;;;;;4988693;28;20472;-95
2021/06/13 10:25:15;;;;;;;13.00;11.70;;;;;;;;;;5069890;23;20506;-96
2021/06/13 10:27:46;;;;;;;14.77;13.33;;;;;;;;;;4953439;28;20483;-95
2021/06/13 10:30:20;;;;;;;17.90;14.20;;;;;;;;;;4968972;29;20533;-96
2021/06/13 10:33:15;;;;;;;17.00;15.50;;;;;;;;;;5348662;23;20477;-96
2021/06/13 10:49:45;;;;;;;15.23;13.60;;;;;;;;;;4990235;28;20467;-94
2021/06/13 10:52:13;;;;;;;15.00;13.60;;;;;;;;;;4973234;23;20995;-93
2021/06/13 10:55:05;;;;;;;15.23;13.73;;;;;;;;;;5030947;23;20493;-96
2021/06/13 11:00:32;;;;;;;14.83;13.33;;;;;;;;;;5153397;23;20272;-96
2021/06/13 11:03:00;;;;;;;14.73;13.40;;;;;;;;;;5004199;23;20558;-95
2021/06/13 11:05:47;;;;;;;15.40;13.87;;;;;;;;;;4942756;29;20454;-95
2021/06/13 11:08:48;;;;;;;19.17;15.60;;;;;;;;;;5036805;23;20489;-96
2021/06/13 11:11:30;;;;;;;16.50;13.23;;;;;;;;;;4979495;28;20453;-95
2021/06/13 11:14:21;;;;;;;15.07;13.40;;;;;;;;;;4968377;28;20572;-95
2021/06/13 11:16:48;;;;;;;16.90;15.30;;;;;;;;;;4964541;28;20460;-95
2021/06/13 11:19:24;;;;;;;14.37;12.97;;;;;;;;;;4970485;28;20512;-95
2021/06/13 11:21:51;;;;;;;15.20;13.77;;;;;;;;;;4964411;28;20461;-95
2021/06/13 11:24:44;;;;;;;17.77;13.00;;;;;;;;;;4963421;28;20477;-95
2021/06/13 11:27:10;;;;;;;12.30;11.07;;;;;;;;;;4963712;28;20461;-96
2021/06/13 11:32:52;;;;;;;12.77;11.47;;;;;;;;;;5161259;27;20307;-95
2021/06/13 11:35:23;;;;;;;13.17;11.97;;;;;;;;;;5139373;27;20458;-96
2021/06/13 11:37:51;;;;;;;13.97;12.67;;;;;;;;;;5143889;27;20458;-95
2021/06/13 11:40:29;;;;;;;17.43;15.87;;;;;;;;;;5142686;27;20458;-95
2021/06/13 11:43:08;;;;;;;15.13;13.83;;;;;;;;;;5141099;27;20503;-94
2021/06/13 11:45:41;;;;;;;14.60;13.10;;;;;;;;;;5144715;27;20477;-95
2021/06/13 11:48:22;;;;;;;13.97;12.33;;;;;;;;;;5133145;22;20502;-96
2021/06/13 11:51:02;;;;;;;12.47;11.17;;;;;;;;;;5105424;28;20463;-95
2021/06/13 11:53:47;;;;;;;10.40;9.50;;;;;;;;;;5102313;28;20447;-94
2021/06/13 11:59:21;;;;;;;10.80;9.90;;;;;;;;;;5158090;22;20532;-96
2021/06/13 12:01:53;;;;;;;11.10;10.10;;;;;;;;;;5163603;27;20499;-94
2021/06/13 12:12:35;;;;;;;12.00;10.83;;;;;;;;;;5348185;22;20538;-96
2021/06/13 12:15:07;;;;;;;12.93;11.53;;;;;;;;;;5109622;28;20488;-96
2021/06/13 12:20:32;;;;;;;19.80;14.57;;;;;;;;;;5109953;22;20502;-96
2021/06/13 12:23:05;;;;;;;14.53;12.50;;;;;;;;;;5125284;28;20443;-95
2021/06/13 12:28:28;;;;;;;11.17;9.90;;;;;;;;;;5122192;28;20441;-92
2021/06/13 12:30:55;;;;;;;11.00;10.10;;;;;;;;;;5124255;28;20538;-95
2021/06/13 13:39:36;;;;;;;8.27;7.67;;;;;;;;;;5168041;27;118038;-96
2021/06/13 13:42:06;;;;;;;9.83;9.07;;;;;;;;;;5175755;22;20480;-92
2021/06/13 13:44:39;;;;;;;8.67;7.97;;;;;;;;;;5142272;28;20454;-95
2021/06/13 13:47:07;;;;;;;9.90;9.20;;;;;;;;;;5129008;28;20457;-92
2021/06/13 13:49:35;;;;;;;10.60;9.03;;;;;;;;;;5138779;28;20439;-94
2021/06/13 13:52:04;;;;;;;5.27;4.87;;;;;;;;;;5138839;28;20486;-96
2021/06/13 13:54:49;;;;;;;5.73;5.23;;;;;;;;;;5149090;22;20479;-93
2021/06/13 13:57:19;;;;;;;9.13;5.00;;;;;;;;;;5221311;22;20495;-95
2021/06/13 13:59:46;;;;;;;5.77;5.27;;;;;;;;;;5107388;28;20471;-93
2021/06/13 14:02:16;;;;;;;6.53;4.90;;;;;;;;;;5105204;28;20443;-96
2021/06/13 14:04:46;;;;;;;6.47;5.60;;;;;;;;;;5109601;28;20447;-96
2021/06/13 14:07:12;;;;;;;5.33;4.93;;;;;;;;;;5120299;22;20506;-95
2021/06/13 14:09:42;;;;;;;6.10;5.60;;;;;;;;;;5114651;28;20474;-96
2021/06/13 14:12:09;;;;;;;7.10;5.40;;;;;;;;;;5106932;28;20444;-93
2021/06/13 14:14:38;;;;;;;5.83;5.30;;;;;;;;;;5121896;28;20455;-94
2021/06/13 14:17:05;;;;;;;5.43;5.03;;;;;;;;;;5101057;28;20475;-96
2021/06/13 14:22:16;;;;;;;6.80;6.30;;;;;;;;;;5101517;26;20508;-96
2021/06/13 14:24:50;;;;;;;6.30;5.80;;;;;;;;;;5085513;22;20489;-96
2021/06/13 14:27:16;;;;;;;6.97;6.37;;;;;;;;;;5086598;28;20482;-92
2021/06/13 14:29:44;;;;;;;7.00;6.40;;;;;;;;;;5090553;22;20474;-96
2021/06/13 14:32:16;;;;;;;7.70;7.00;;;;;;;;;;5117774;22;20526;-94
2021/06/13 14:37:13;;;;;;;8.80;8.00;;;;;;;;;;5123599;28;20535;-95
2021/06/13 14:39:46;;;;;;;7.90;7.33;;;;;;;;;;5116426;28;20449;-95
2021/06/13 14:48:08;;;;;;;8.13;7.43;;;;;;;;;;5172667;22;20481;-96
2021/06/13 14:50:34;;;;;;;6.63;6.03;;;;;;;;;;5074942;28;20489;-96
2021/06/13 14:53:01;;;;;;;6.40;5.90;;;;;;;;;;5074421;28;20484;-96
2021/06/13 14:58:13;;;;;;;6.47;6.03;;;;;;;;;;5100412;22;20553;-94
2021/06/13 15:00:41;;;;;;;6.00;5.40;;;;;;;;;;5090338;28;20459;-96
2021/06/13 15:03:09;;;;;;;14.33;7.17;;;;;;;;;;5071141;28;20457;-96
2021/06/13 15:05:44;;;;;;;6.63;6.17;;;;;;;;;;5071624;28;20454;-96
2021/06/13 15:08:10;;;;;;;7.90;7.20;;;;;;;;;;5168517;22;20485;-96
2021/06/13 15:11:03;;;;;;;6.17;5.67;;;;;;;;;;5279291;22;20481;-96
2021/06/13 15:16:44;;;;;;;6.10;5.60;;;;;;;;;;5090041;22;20496;-95
2021/06/13 15:19:14;;;;;;;6.97;6.37;;;;;;;;;;5102772;22;20503;-94
2021/06/13 15:24:21;;;;;;;6.60;6.00;;;;;;;;;;5154091;22;20587;-95
2021/06/13 15:26:53;;;;;;;6.57;5.90;;;;;;;;;;5094484;28;20483;-96
2021/06/13 15:29:20;;;;;;;6.63;6.13;;;;;;;;;;5096093;28;20460;-95
2021/06/13 15:32:12;;;;;;;8.70;6.93;;;;;;;;;;5299047;22;20494;-96
2021/06/13 15:34:41;;;;;;;5.80;5.30;;;;;;;;;;5104328;28;20455;-94
2021/06/13 15:39:56;;;;;;;6.97;6.47;;;;;;;;;;5090666;28;20446;-96
2021/06/13 15:42:34;;;;;;;8.33;7.40;;;;;;;;;;5093871;28;20480;-96
2021/06/13 15:45:01;;;;;;;9.20;8.50;;;;;;;;;;5102881;28;20477;-96
2021/06/13 15:47:27;;;;;;;8.53;7.50;;;;;;;;;;5232578;22;20470;-96
2021/06/13 15:52:56;;;;;;;13.00;12.00;;;;;;;;;;5244671;22;20978;-96
2021/06/13 15:58:13;;;;;;;13.70;8.97;;;;;;;;;;5288962;22;20520;-96
2021/06/13 16:03:23;;;;;;;8.73;7.93;;;;;;;;;;2264927;22;20516;-96
2021/06/13 16:08:24;;;;;;;7.33;6.63;;;;;;;;;;5110972;28;20480;-96
2021/06/13 16:14:02;;;;;;;6.70;6.10;;;;;;;;;;5134273;22;20469;-96
2021/06/13 16:16:30;;;;;;;6.90;6.37;;;;;;;;;;5086177;28;20503;-96
2021/06/13 16:19:00;;;;;;;8.47;7.10;;;;;;;;;;5105463;23;20483;-95
2021/06/13 16:21:28;;;;;;;7.00;6.40;;;;;;;;;;5102920;28;20437;-94
2021/06/13 16:24:05;;;;;;;7.77;7.17;;;;;;;;;;5095890;28;20466;-96
2021/06/13 16:26:33;;;;;;;7.10;6.60;;;;;;;;;;5078704;28;20449;-94
2021/06/13 16:29:00;;;;;;;8.30;7.70;;;;;;;;;;5077935;28;20461;-94
2021/06/13 16:31:28;;;;;;;7.00;6.33;;;;;;;;;;5096248;28;20440;-96
2021/06/13 16:36:40;;;;;;;8.23;7.47;;;;;;;;;;5046409;28;20448;-95
2021/06/13 16:39:12;;;;;;;7.33;6.60;;;;;;;;;;5051515;28;20505;-94
2021/06/13 16:41:40;;;;;;;7.00;6.50;;;;;;;;;;5026842;28;20466;-94
2021/06/13 16:44:16;;;;;;;7.33;6.73;;;;;;;;;;5033978;28;20447;-95
2021/06/13 16:46:53;;;;;;;8.60;7.07;;;;;;;;;;5041239;28;20511;-95
2021/06/13 16:49:23;;;;;;;7.67;6.97;;;;;;;;;;5129874;22;20490;-96
2021/06/13 16:52:01;;;;;;;7.93;7.23;;;;;;;;;;5113062;28;20481;-96
2021/06/13 17:00:13;;;;;;;7.57;6.87;;;;;;;;;;5139861;22;20524;-93
2021/06/13 17:02:45;;;;;;;7.67;6.80;;;;;;;;;;5203679;22;20549;-96
2021/06/13 17:07:53;;;;;;;7.60;6.90;;;;;;;;;;5061028;28;20465;-96
2021/06/13 17:10:20;;;;;;;7.87;6.90;;;;;;;;;;5051368;28;20454;-95
2021/06/13 17:12:49;;;;;;;7.70;7.00;;;;;;;;;;5050452;28;20467;-94
2021/06/13 17:15:25;;;;;;;7.20;6.60;;;;;;;;;;5064130;28;20450;-96
2021/06/13 17:17:58;;;;;;;7.90;7.20;;;;;;;;;;5066542;28;20503;-96
2021/06/13 17:20:27;;;;;;;7.33;6.73;;;;;;;;;;5088218;23;20588;-96
2021/06/13 17:23:01;;;;;;;7.37;6.80;;;;;;;;;;5045278;28;20452;-96
2021/06/13 17:25:42;;;;;;;7.80;7.10;;;;;;;;;;5059595;28;20500;-96
2021/06/13 17:28:09;;;;;;;7.70;7.10;;;;;;;;;;5062784;28;20458;-95
2021/06/13 17:30:48;;;;;;;8.30;7.40;;;;;;;;;;5034253;28;20446;-96
2021/06/13 17:33:15;;;;;;;9.50;7.60;;;;;;;;;;5039690;28;20456;-96
2021/06/13 17:44:23;;;;;;;8.47;7.77;;;;;;;;;;5287428;22;20532;-96
2021/06/13 17:49:28;;;;;;;8.27;7.57;;;;;;;;;;5261377;22;20477;-96
2021/06/13 17:54:33;;;;;;;9.97;8.43;;;;;;;;;;5080080;22;20469;-96
2021/06/13 17:57:06;;;;;;;11.37;10.37;;;;;;;;;;5071282;28;20460;-96
2021/06/13 18:10:17;;;;;;;9.40;7.70;;;;;;;;;;4203895;26;20490;-96
2021/06/13 18:12:43;;;;;;;9.90;8.03;;;;;;;;;;5428502;22;20563;-96
2021/06/13 18:15:10;;;;;;;9.10;7.80;;;;;;;;;;5030839;28;20458;-96
2021/06/13 18:17:37;;;;;;;11.20;8.10;;;;;;;;;;5051318;22;20524;-95
2021/06/13 18:20:05;;;;;;;9.83;8.83;;;;;;;;;;5047553;28;20519;-95
2021/06/13 18:25:05;;;;;;;9.40;8.60;;;;;;;;;;5135737;22;20476;-96
2021/06/13 18:27:34;;;;;;;10.37;8.70;;;;;;;;;;5044268;28;20480;-96
2021/06/13 18:30:00;;;;;;;9.70;8.90;;;;;;;;;;5040589;28;20478;-96
2021/06/13 18:32:28;;;;;;;11.50;9.10;;;;;;;;;;5046512;28;20446;-96
2021/06/13 18:34:56;;;;;;;14.27;9.30;;;;;;;;;;5027670;28;20449;-96
2021/06/13 18:37:22;;;;;;;11.00;9.77;;;;;;;;;;5040078;28;20483;-96
2021/06/13 18:39:49;;;;;;;11.07;9.30;;;;;;;;;;5044875;28;20494;-96
2021/06/13 18:42:16;;;;;;;10.30;9.40;;;;;;;;;;5044091;28;20455;-96
2021/06/13 18:44:43;;;;;;;10.60;8.70;;;;;;;;;;5027342;28;20451;-95
2021/06/13 18:49:42;;;;;;;10.50;9.60;;;;;;;;;;5061032;28;21056;-96
2021/06/13 18:52:10;;;;;;;10.87;9.70;;;;;;;;;;5059553;28;20466;-96
2021/06/13 18:54:38;;;;;;;10.70;9.50;;;;;;;;;;5063563;28;20447;-95
2021/06/13 18:57:04;;;;;;;12.43;11.10;;;;;;;;;;5041359;28;20698;-96
2021/06/13 18:59:31;;;;;;;11.40;9.27;;;;;;;;;;5063678;28;20493;-94
2021/06/13 19:01:59;;;;;;;11.40;10.30;;;;;;;;;;5064877;28;20473;-95
2021/06/13 19:04:25;;;;;;;10.10;9.20;;;;;;;;;;5066891;28;20458;-96
2021/06/13 19:06:52;;;;;;;10.20;9.30;;;;;;;;;;5063785;28;20434;-96
2021/06/13 19:09:20;;;;;;;11.23;9.50;;;;;;;;;;5063049;28;20435;-95
2021/06/13 19:11:49;;;;;;;14.83;10.80;;;;;;;;;;5064987;28;20820;-96
2021/06/13 19:14:16;;;;;;;10.67;9.67;;;;;;;;;;5065775;28;20466;-96
2021/06/13 19:16:43;;;;;;;11.33;10.17;;;;;;;;;;5066746;28;20446;-96
2021/06/13 20:01:16;;;;;;;13.63;10.67;;;;;;;;;;4982583;28;20585;-96
2021/06/13 20:20:21;;;;;;;10.17;8.80;;;;;;;;;;5075339;23;20476;-96
2021/06/13 20:23:14;;;;;;;10.07;9.17;;;;;;;;;;5604778;22;20503;-95
2021/06/13 20:28:24;;;;;;;14.33;9.63;;;;;;;;;;3333076;26;20502;-96
2021/06/13 20:30:54;;;;;;;11.53;10.20;;;;;;;;;;5040642;28;20442;-96
2021/06/13 20:33:24;;;;;;;10.20;9.17;;;;;;;;;;5046692;28;20485;-96
2021/06/13 20:35:50;;;;;;;10.80;9.50;;;;;;;;;;5035411;28;20641;-96
2021/06/13 20:38:19;;;;;;;11.80;8.80;;;;;;;;;;5038400;28;20490;-95
2021/06/13 20:40:48;;;;;;;10.40;8.70;;;;;;;;;;5050447;28;20435;-95
2021/06/13 20:43:31;;;;;;;9.93;8.87;;;;;;;;;;5049840;28;20455;-95
2021/06/13 20:45:59;;;;;;;10.27;8.30;;;;;;;;;;5046888;28;20518;-96
2021/06/13 20:48:26;;;;;;;8.87;7.83;;;;;;;;;;5048520;28;20446;-96
2021/06/13 20:51:01;;;;;;;11.87;8.23;;;;;;;;;;5047923;28;20443;-96
2021/06/13 20:53:32;;;;;;;8.50;7.80;;;;;;;;;;5037275;28;20508;-96
2021/06/13 20:55:58;;;;;;;8.57;7.87;;;;;;;;;;5037935;28;20498;-96
2021/06/13 20:58:26;;;;;;;9.10;8.30;;;;;;;;;;5042582;28;20477;-95
2021/06/13 21:00:53;;;;;;;13.90;10.33;;;;;;;;;;5042753;28;20450;-95
2021/06/13 21:03:20;;;;;;;12.93;11.57;;;;;;;;;;5043002;28;20517;-96
2021/06/13 21:05:46;;;;;;;12.70;11.50;;;;;;;;;;5038933;28;20467;-95
2021/06/13 21:08:13;;;;;;;13.03;11.83;;;;;;;;;;5045660;28;20450;-96
2021/06/13 21:10:40;;;;;;;13.27;11.97;;;;;;;;;;5042180;28;20462;-95
2021/06/13 21:13:06;;;;;;;12.63;10.67;;;;;;;;;;5042754;28;20450;-95
2021/06/13 21:15:34;;;;;;;14.47;12.70;;;;;;;;;;5041021;28;20462;-96
2021/06/13 21:18:01;;;;;;;12.33;11.27;;;;;;;;;;5042543;28;20477;-96
2021/06/13 21:20:28;;;;;;;15.27;13.33;;;;;;;;;;5039428;28;20495;-96
2021/06/13 21:22:55;;;;;;;13.37;12.10;;;;;;;;;;5044385;28;20477;-95
2021/06/13 21:25:22;;;;;;;14.43;12.93;;;;;;;;;;5042128;28;20451;-96
2021/06/13 21:27:48;;;;;;;15.07;11.47;;;;;;;;;;5045617;28;20478;-95
2021/06/13 21:30:15;;;;;;;13.13;11.93;;;;;;;;;;5047129;28;20463;-96
2021/06/13 21:32:47;;;;;;;13.40;12.03;;;;;;;;;;5039878;28;20463;-95
2021/06/13 21:35:14;;;;;;;15.33;12.00;;;;;;;;;;5038998;28;20494;-96
2021/06/13 21:38:01;;;;;;;12.23;11.13;;;;;;;;;;5045567;28;20593;-96
2021/06/13 21:40:28;;;;;;;12.50;11.30;;;;;;;;;;5058850;28;20463;-96
2021/06/13 21:43:05;;;;;;;12.50;11.30;;;;;;;;;;5036641;23;20476;-96
2021/06/13 21:45:32;;;;;;;12.30;11.20;;;;;;;;;;5009074;28;20455;-95
2021/06/13 21:48:14;;;;;;;12.53;11.23;;;;;;;;;;5024120;28;20468;-96
2021/06/13 21:50:42;;;;;;;10.93;10.00;;;;;;;;;;5019970;28;20444;-95
2021/06/13 21:53:08;;;;;;;11.80;10.60;;;;;;;;;;5021798;28;20462;-96
2021/06/13 21:55:35;;;;;;;16.63;11.10;;;;;;;;;;5020180;23;20488;-95
2021/06/13 22:00:37;;;;;;;12.10;11.00;;;;;;;;;;1421344;26;20536;-94
2021/06/13 22:03:17;;;;;;;12.30;11.23;;;;;;;;;;5005187;28;20458;-96
2021/06/13 22:05:43;;;;;;;16.13;14.63;;;;;;;;;;5012306;28;20554;-96
2021/06/13 22:08:10;;;;;;;15.90;14.07;;;;;;;;;;5002170;28;20449;-94
2021/06/13 22:10:37;;;;;;;14.90;13.50;;;;;;;;;;5005686;28;20460;-95
2021/06/13 22:13:04;;;;;;;17.57;15.97;;;;;;;;;;5004394;28;20463;-93
2021/06/13 22:15:32;;;;;;;18.97;17.17;;;;;;;;;;5007113;28;20480;-94
2021/06/13 22:18:02;;;;;;;17.53;15.70;;;;;;;;;;5003449;28;20464;-95
2021/06/13 22:20:30;;;;;;;20.40;18.37;;;;;;;;;;5006456;28;20555;-94
2021/06/13 22:22:56;;;;;;;18.63;16.80;;;;;;;;;;5003998;28;20457;-95
2021/06/13 22:25:23;;;;;;;22.77;20.47;;;;;;;;;;5004755;28;20453;-96
2021/06/13 22:30:25;;;;;;;21.60;19.40;;;;;;;;;;4580716;22;20574;-94
2021/06/13 22:32:51;;;;;;;19.63;17.63;;;;;;;;;;5000920;28;20464;-94
2021/06/13 22:35:18;;;;;;;15.93;14.33;;;;;;;;;;5007368;28;20448;-95
2021/06/13 22:37:49;;;;;;;16.00;14.10;;;;;;;;;;5004311;28;20464;-94
2021/06/13 22:40:16;;;;;;;15.37;13.87;;;;;;;;;;5008158;28;20498;-96
2021/06/13 22:42:52;;;;;;;13.53;12.23;;;;;;;;;;5003184;28;20452;-95
2021/06/13 22:45:19;;;;;;;13.53;12.27;;;;;;;;;;5004479;28;20457;-93
2021/06/13 22:47:52;;;;;;;12.80;11.50;;;;;;;;;;5004931;28;20448;-94
2021/06/13 22:50:23;;;;;;;12.00;10.90;;;;;;;;;;5010172;28;20442;-95
2021/06/13 22:55:32;;;;;;;13.20;12.00;;;;;;;;;;4998081;28;20568;-94
2021/06/13 22:57:58;;;;;;;13.00;11.70;;;;;;;;;;5007088;28;20912;-95
2021/06/13 23:00:40;;;;;;;14.00;11.27;;;;;;;;;;5006613;28;20494;-96
2021/06/13 23:03:08;;;;;;;14.10;12.70;;;;;;;;;;5002101;28;20460;-95
2021/06/13 23:05:35;;;;;;;14.33;12.73;;;;;;;;;;5006011;28;20456;-95
2021/06/13 23:08:03;;;;;;;14.13;12.73;;;;;;;;;;5006322;28;20615;-96
2021/06/13 23:10:30;;;;;;;15.93;12.70;;;;;;;;;;5002405;28;20473;-94
2021/06/13 23:12:57;;;;;;;12.27;11.13;;;;;;;;;;5007192;28;20480;-95
2021/06/13 23:15:23;;;;;;;12.63;11.33;;;;;;;;;;5008016;28;20457;-96
2021/06/13 23:17:51;;;;;;;12.47;11.27;;;;;;;;;;5007140;28;20465;-94
2021/06/13 23:20:18;;;;;;;13.00;11.70;;;;;;;;;;5007067;28;20524;-96
2021/06/13 23:22:45;;;;;;;13.73;12.33;;;;;;;;;;5005976;28;20459;-95
2021/06/13 23:25:13;;;;;;;14.87;12.10;;;;;;;;;;5009149;28;20467;-96
2021/06/13 23:27:40;;;;;;;12.40;11.13;;;;;;;;;;5005713;28;20502;-95
2021/06/13 23:30:08;;;;;;;13.93;12.53;;;;;;;;;;5002638;28;20488;-94
2021/06/13 23:32:35;;;;;;;13.87;11.97;;;;;;;;;;5001679;28;20515;-95
2021/06/13 23:35:01;;;;;;;13.10;11.70;;;;;;;;;;5003076;28;20456;-94
2021/06/13 23:37:28;;;;;;;11.10;10.00;;;;;;;;;;5005290;28;20464;-94
2021/06/13 23:39:54;;;;;;;12.93;10.63;;;;;;;;;;4995023;28;20557;-94
2021/06/13 23:42:22;;;;;;;15.43;10.50;;;;;;;;;;5005792;28;20449;-95
2021/06/13 23:44:49;;;;;;;14.30;11.17;;;;;;;;;;5005301;28;20458;-93
2021/06/13 23:47:15;;;;;;;12.10;10.90;;;;;;;;;;5002477;28;20507;-94
2021/06/13 23:49:42;;;;;;;11.17;10.03;;;;;;;;;;5004132;28;20530;-94
2021/06/13 23:52:09;;;;;;;11.90;9.37;;;;;;;;;;5002290;28;20487;-94
2021/06/13 23:54:36;;;;;;;12.87;9.37;;;;;;;;;;5006819;28;20476;-93
2021/06/13 23:57:02;;;;;;;12.93;9.50;;;;;;;;;;5002125;28;20457;-94
2021/06/13 23:59:30;;;;;;;12.50;10.23;;;;;;;;;;5002816;28;20452;-94
